createdAt,value
2018-09-25T00:03:07.464Z,100.00
2018-09-25T00:06:17.021Z,100.00
2018-09-25T00:09:26.504Z,100.00
2018-09-25T00:12:36.250Z,100.00
2018-09-25T00:15:45.876Z,100.00
2018-09-25T00:18:55.396Z,100.00
2018-09-25T00:22:04.933Z,100.00
2018-09-25T00:25:14.465Z,100.00
2018-09-25T00:28:24.140Z,100.00
2018-09-25T00:31:33.521Z,100.00
2018-09-25T00:34:42.980Z,100.00
2018-09-25T00:37:52.512Z,100.00
2018-09-25T00:41:02.030Z,100.00
2018-09-25T00:44:11.681Z,100.00
2018-09-25T00:47:21.356Z,100.00
2018-09-25T00:50:30.852Z,100.00
2018-09-25T00:53:40.377Z,100.00
2018-09-25T00:56:49.841Z,100.00
2018-09-25T00:59:59.347Z,100.00
2018-09-25T01:03:08.815Z,100.00
2018-09-25T01:06:18.552Z,100.00
2018-09-25T01:09:28.025Z,100.00
2018-09-25T01:12:37.679Z,100.00
2018-09-25T01:15:47.191Z,100.00
2018-09-25T01:18:57.020Z,100.00
2018-09-25T01:22:06.566Z,100.00
2018-09-25T01:25:16.158Z,100.00
2018-09-25T01:28:25.709Z,100.00
2018-09-25T01:31:35.221Z,100.00
2018-09-25T01:34:44.728Z,100.00
2018-09-25T01:37:54.366Z,100.00
2018-09-25T01:41:03.951Z,100.00
2018-09-25T01:44:13.650Z,100.00
2018-09-25T01:47:23.156Z,100.00
2018-09-25T01:50:32.643Z,100.00
2018-09-25T01:53:42.186Z,100.00
2018-09-25T01:56:51.709Z,100.00
2018-09-25T02:00:01.189Z,100.00
2018-09-25T02:03:10.698Z,100.00
2018-09-25T02:06:20.447Z,100.00
2018-09-25T02:09:30.092Z,100.00
2018-09-25T02:12:39.592Z,100.00
2018-09-25T02:15:49.065Z,100.00
2018-09-25T02:18:58.752Z,100.00
2018-09-25T02:22:08.233Z,100.00
2018-09-25T02:25:17.807Z,100.00
2018-09-25T02:28:27.466Z,100.00
2018-09-25T02:31:37.132Z,100.00
2018-09-25T02:34:46.836Z,100.00
2018-09-25T02:37:57.537Z,100.00
2018-09-25T02:41:07.126Z,100.00
2018-09-25T02:44:16.737Z,100.00
2018-09-25T02:47:26.384Z,100.00
2018-09-25T02:50:35.925Z,100.00
2018-09-25T02:53:45.497Z,100.00
2018-09-25T02:56:55.039Z,100.00
2018-09-25T03:00:04.760Z,100.00
2018-09-25T03:03:14.527Z,100.00
2018-09-25T03:06:24.036Z,100.00
2018-09-25T03:09:33.552Z,100.00
2018-09-25T03:12:43.209Z,100.00
2018-09-25T03:15:52.751Z,100.00
2018-09-25T03:19:02.284Z,100.00
2018-09-25T03:22:11.976Z,100.00
2018-09-25T03:25:21.711Z,100.00
2018-09-25T03:28:31.282Z,100.00
2018-09-25T03:31:41.134Z,100.00
2018-09-25T03:34:50.868Z,100.00
2018-09-25T03:38:00.424Z,100.00
2018-09-25T03:41:10.084Z,100.00
2018-09-25T03:44:20.012Z,100.00
2018-09-25T03:47:29.914Z,100.00
2018-09-25T03:50:39.422Z,100.00
2018-09-25T03:53:49.155Z,100.00
2018-09-25T03:56:59.095Z,100.00
2018-09-25T04:00:08.759Z,100.00
2018-09-25T04:03:18.237Z,100.00
2018-09-25T04:06:27.848Z,100.00
2018-09-25T04:09:37.376Z,100.00
2018-09-25T04:12:47.174Z,100.00
2018-09-25T04:15:56.918Z,100.00
2018-09-25T04:19:06.845Z,100.00
2018-09-25T04:22:16.518Z,100.00
2018-09-25T04:25:28.290Z,100.00
2018-09-25T04:28:37.790Z,100.00
2018-09-25T04:31:47.598Z,100.00
2018-09-25T04:34:57.143Z,100.00
2018-09-25T04:38:06.663Z,100.00
2018-09-25T04:41:16.562Z,100.00
2018-09-25T04:44:26.378Z,100.00
2018-09-25T04:47:36.024Z,100.00
2018-09-25T04:50:45.812Z,100.00
2018-09-25T04:53:55.427Z,100.00
2018-09-25T04:57:05.227Z,100.00
2018-09-25T05:00:14.736Z,100.00
2018-09-25T05:03:24.268Z,100.00
2018-09-25T05:09:55.358Z,100.00
2018-09-25T05:13:04.892Z,100.00
2018-09-25T05:16:14.383Z,100.00
2018-09-25T05:19:23.888Z,100.00
2018-09-25T05:22:33.369Z,100.00
2018-09-25T05:25:43.275Z,100.00
2018-09-25T05:28:52.799Z,100.00
2018-09-25T05:32:02.456Z,100.00
2018-09-25T05:35:11.956Z,100.00
2018-09-25T05:38:21.676Z,100.00
2018-09-25T05:41:31.426Z,100.00
2018-09-25T05:44:41.278Z,100.00
2018-09-25T05:47:50.727Z,99.13
2018-09-25T05:51:00.393Z,99.54
2018-09-25T05:54:10.035Z,99.06
2018-09-25T05:57:19.988Z,98.53
2018-09-25T06:00:29.523Z,97.20
2018-09-25T06:03:39.104Z,96.49
2018-09-25T06:06:48.788Z,96.15
2018-09-25T06:09:58.666Z,95.67
2018-09-25T06:13:08.345Z,96.44
2018-09-25T06:16:17.951Z,96.65
2018-09-25T06:19:27.525Z,96.63
2018-09-25T06:22:37.153Z,96.67
2018-09-25T06:25:46.568Z,98.03
2018-09-25T06:28:56.139Z,97.70
2018-09-25T06:32:05.852Z,95.60
2018-09-25T06:35:15.764Z,94.60
2018-09-25T06:38:25.617Z,94.22
2018-09-25T06:41:35.283Z,94.68
2018-09-25T06:44:44.933Z,95.02
2018-09-25T06:47:54.452Z,95.02
2018-09-25T06:51:04.065Z,95.20
2018-09-25T06:54:13.931Z,94.83
2018-09-25T06:57:23.405Z,93.38
2018-09-25T07:00:33.053Z,93.02
2018-09-25T07:03:42.551Z,92.39
2018-09-25T07:06:52.656Z,89.05
2018-09-25T07:10:02.791Z,86.33
2018-09-25T07:13:12.268Z,85.47
2018-09-25T07:16:22.059Z,84.69
2018-09-25T07:19:31.739Z,84.12
2018-09-25T07:22:41.509Z,83.05
2018-09-25T07:25:51.044Z,81.11
2018-09-25T07:29:00.722Z,81.58
2018-09-25T07:32:10.604Z,82.03
2018-09-25T07:35:20.084Z,81.35
2018-09-25T07:38:29.914Z,80.75
2018-09-25T07:41:39.590Z,82.78
2018-09-25T07:44:49.631Z,81.70
2018-09-25T07:47:59.575Z,82.60
2018-09-25T07:51:09.457Z,84.05
2018-09-25T07:54:19.074Z,81.91
2018-09-25T07:57:28.504Z,79.42
2018-09-25T08:00:38.211Z,77.41
2018-09-25T08:03:47.736Z,75.01
2018-09-25T08:06:57.256Z,74.44
2018-09-25T08:10:07.090Z,74.97
2018-09-25T08:13:17.325Z,74.86
2018-09-25T08:16:26.829Z,75.44
2018-09-25T08:19:36.780Z,74.07
2018-09-25T08:22:46.296Z,72.00
2018-09-25T08:25:56.100Z,71.68
2018-09-25T08:29:05.823Z,70.54
2018-09-25T08:32:15.357Z,71.82
2018-09-25T08:35:24.807Z,71.25
2018-09-25T08:38:34.534Z,71.13
2018-09-25T08:41:43.924Z,68.70
2018-09-25T08:44:53.420Z,67.87
2018-09-25T08:48:03.228Z,68.61
2018-09-25T08:51:12.728Z,67.71
2018-09-25T08:54:22.414Z,66.49
2018-09-25T08:57:31.925Z,67.78
2018-09-25T09:00:41.591Z,67.37
2018-09-25T09:03:51.182Z,67.91
2018-09-25T09:07:01.221Z,66.86
2018-09-25T09:10:11.475Z,67.19
2018-09-25T09:13:20.968Z,64.27
2018-09-25T09:16:30.604Z,66.67
2018-09-25T09:19:40.889Z,66.82
2018-09-25T09:22:50.336Z,64.44
2018-09-25T09:25:59.752Z,64.02
2018-09-25T09:29:09.188Z,65.85
2018-09-25T09:32:18.902Z,65.18
2018-09-25T09:35:29.236Z,63.11
2018-09-25T09:38:39.224Z,62.50
2018-09-25T09:41:48.888Z,62.16
2018-09-25T09:44:58.671Z,61.62
2018-09-25T09:48:08.100Z,60.72
2018-09-25T09:51:18.191Z,58.55
2018-09-25T09:54:28.399Z,55.92
2018-09-25T09:57:38.114Z,55.23
2018-09-25T10:00:47.731Z,54.92
2018-09-25T10:03:57.568Z,53.09
2018-09-25T10:07:07.304Z,57.27
2018-09-25T10:10:17.028Z,56.93
2018-09-25T10:13:26.620Z,57.06
2018-09-25T10:16:36.111Z,56.64
2018-09-25T10:19:45.717Z,58.85
2018-09-25T10:22:55.323Z,62.04
2018-09-25T10:26:05.206Z,62.04
2018-09-25T10:29:14.732Z,62.02
2018-09-25T10:32:24.452Z,60.99
2018-09-25T10:35:34.084Z,63.11
2018-09-25T10:38:43.641Z,60.05
2018-09-25T10:41:53.226Z,61.17
2018-09-25T10:45:03.088Z,60.58
2018-09-25T10:48:13.561Z,60.92
2018-09-25T10:51:23.075Z,57.78
2018-09-25T10:54:32.627Z,55.13
2018-09-25T10:57:42.264Z,54.24
2018-09-25T11:00:51.870Z,57.73
2018-09-25T11:04:01.639Z,55.84
2018-09-25T11:07:11.585Z,51.55
2018-09-25T11:10:21.201Z,52.24
2018-09-25T11:13:30.836Z,59.39
2018-09-25T11:16:40.777Z,54.17
2018-09-25T11:19:50.467Z,51.70
2018-09-25T11:23:00.180Z,53.44
2018-09-25T11:26:09.721Z,54.50
2018-09-25T11:29:19.212Z,58.38
2018-09-25T11:32:28.700Z,54.13
2018-09-25T11:35:38.244Z,55.92
2018-09-25T11:38:47.954Z,57.84
2018-09-25T11:41:57.676Z,56.92
2018-09-25T11:45:07.368Z,59.33
2018-09-25T11:48:17.062Z,58.04
2018-09-25T11:51:26.877Z,56.43
2018-09-25T11:54:36.421Z,54.65
2018-09-25T11:57:46.199Z,53.19
2018-09-25T12:00:55.824Z,54.00
2018-09-25T12:04:05.460Z,57.31
2018-09-25T12:07:14.980Z,52.35
2018-09-25T12:10:25.213Z,51.92
2018-09-25T12:13:34.841Z,54.26
2018-09-25T12:16:44.599Z,51.68
2018-09-25T12:19:54.144Z,52.53
2018-09-25T12:23:03.817Z,53.44
2018-09-25T12:26:14.309Z,54.96
2018-09-25T12:29:23.823Z,52.66
2018-09-25T12:32:33.784Z,52.81
2018-09-25T12:35:43.351Z,53.05
2018-09-25T12:38:52.966Z,51.67
2018-09-25T12:42:02.616Z,52.42
2018-09-25T12:45:12.276Z,50.97
2018-09-25T12:48:22.002Z,53.15
2018-09-25T12:51:31.530Z,55.41
2018-09-25T12:54:40.987Z,56.06
2018-09-25T12:57:50.768Z,55.97
2018-09-25T13:01:00.468Z,54.45
2018-09-25T13:04:10.032Z,52.45
2018-09-25T13:07:19.496Z,52.84
2018-09-25T13:10:29.572Z,50.72
2018-09-25T13:13:39.327Z,54.04
2018-09-25T13:16:49.088Z,51.92
2018-09-25T13:19:59.049Z,51.04
2018-09-25T13:23:08.722Z,51.18
2018-09-25T13:26:18.990Z,51.49
2018-09-25T13:29:28.655Z,51.61
2018-09-25T13:32:38.534Z,52.84
2018-09-25T13:35:49.495Z,52.34
2018-09-25T13:38:59.147Z,52.36
2018-09-25T13:42:08.759Z,52.35
2018-09-25T13:45:18.559Z,52.78
2018-09-25T13:48:28.414Z,54.76
2018-09-25T13:51:38.059Z,52.80
2018-09-25T13:54:49.181Z,52.22
2018-09-25T13:57:58.867Z,49.30
2018-09-25T14:01:08.917Z,53.10
2018-09-25T14:04:18.711Z,51.65
2018-09-25T14:07:28.831Z,54.35
2018-09-25T14:10:38.627Z,53.76
2018-09-25T14:13:48.277Z,53.81
2018-09-25T14:16:58.569Z,52.70
2018-09-25T14:20:08.394Z,52.44
2018-09-25T14:23:18.234Z,53.13
2018-09-25T14:26:27.858Z,52.72
2018-09-25T14:29:37.455Z,56.39
2018-09-25T14:32:47.409Z,50.84
2018-09-25T14:35:57.255Z,50.89
2018-09-25T14:39:07.299Z,53.18
2018-09-25T14:42:17.114Z,51.80
2018-09-25T14:45:26.807Z,52.94
2018-09-25T14:48:36.649Z,53.21
2018-09-25T14:51:46.334Z,54.90
2018-09-25T14:54:56.078Z,55.28
2018-09-25T14:58:05.934Z,52.28
2018-09-25T15:01:15.681Z,51.89
2018-09-25T15:04:25.248Z,52.26
2018-09-25T15:07:34.736Z,51.81
2018-09-25T15:10:44.687Z,54.02
2018-09-25T15:13:54.229Z,52.92
2018-09-25T15:17:03.802Z,52.94
2018-09-25T15:20:13.461Z,52.62
2018-09-25T15:23:23.692Z,53.24
2018-09-25T15:26:33.304Z,51.16
2018-09-25T15:29:43.001Z,50.94
2018-09-25T15:32:52.496Z,51.00
2018-09-25T15:36:02.217Z,51.45
2018-09-25T15:39:14.248Z,52.26
2018-09-25T15:42:23.884Z,53.47
2018-09-25T15:45:33.734Z,55.38
2018-09-25T15:48:43.256Z,54.72
2018-09-25T15:51:52.784Z,53.09
2018-09-25T15:55:02.174Z,54.01
2018-09-25T15:58:11.972Z,53.70
2018-09-25T16:01:21.469Z,53.76
2018-09-25T16:04:31.103Z,56.02
2018-09-25T16:07:40.893Z,55.89
2018-09-25T16:10:50.390Z,55.63
2018-09-25T16:13:59.983Z,56.52
2018-09-25T16:17:09.624Z,57.04
2018-09-25T16:20:20.252Z,57.84
2018-09-25T16:23:29.892Z,56.52
2018-09-25T16:26:39.369Z,58.73
2018-09-25T16:29:49.077Z,58.25
2018-09-25T16:32:59.269Z,60.41
2018-09-25T16:36:08.731Z,61.11
2018-09-25T16:39:18.311Z,60.58
2018-09-25T16:42:27.711Z,61.07
2018-09-25T16:45:37.248Z,61.74
2018-09-25T16:48:46.801Z,62.78
2018-09-25T16:51:56.672Z,63.10
2018-09-25T16:55:22.924Z,63.86
2018-09-25T16:58:32.543Z,65.98
2018-09-25T17:01:42.221Z,66.07
2018-09-25T17:04:51.681Z,66.36
2018-09-25T17:08:01.136Z,67.05
2018-09-25T17:11:11.056Z,67.68
2018-09-25T17:14:20.467Z,68.04
2018-09-25T17:17:30.144Z,68.03
2018-09-25T17:20:40.090Z,68.33
2018-09-25T17:23:49.994Z,70.11
2018-09-25T17:26:59.585Z,73.58
2018-09-25T17:30:09.276Z,70.74
2018-09-25T17:33:18.780Z,71.16
2018-09-25T17:36:28.404Z,71.30
2018-09-25T17:39:38.099Z,71.95
2018-09-25T17:42:47.801Z,72.44
2018-09-25T17:45:57.353Z,71.82
2018-09-25T17:49:06.803Z,73.00
2018-09-25T17:52:16.416Z,73.00
2018-09-25T17:55:26.581Z,75.37
2018-09-25T17:58:36.316Z,75.77
2018-09-25T18:01:46.027Z,75.88
2018-09-25T18:04:55.532Z,75.47
2018-09-25T18:08:05.244Z,75.62
2018-09-25T18:11:14.689Z,76.03
2018-09-25T18:14:24.262Z,77.65
2018-09-25T18:17:33.958Z,77.61
2018-09-25T18:20:43.753Z,77.59
2018-09-25T18:23:53.348Z,78.45
2018-09-25T18:27:03.464Z,80.79
2018-09-25T18:30:13.193Z,82.17
2018-09-25T18:33:23.040Z,83.54
2018-09-25T18:36:32.579Z,83.65
2018-09-25T18:39:42.218Z,82.06
2018-09-25T18:42:51.912Z,82.62
2018-09-25T18:46:01.588Z,83.77
2018-09-25T18:49:11.195Z,85.08
2018-09-25T18:52:20.720Z,86.39
2018-09-25T18:55:30.875Z,86.44
2018-09-25T18:58:40.563Z,86.97
2018-09-25T19:01:50.290Z,87.45
2018-09-25T19:05:00.012Z,86.86
2018-09-25T19:08:09.657Z,86.17
2018-09-25T19:11:19.444Z,85.34
2018-09-25T19:14:29.899Z,86.36
2018-09-25T19:17:39.989Z,86.37
2018-09-25T19:20:49.561Z,86.14
2018-09-25T19:23:59.184Z,84.52
2018-09-25T19:27:08.816Z,84.31
2018-09-25T19:30:19.489Z,86.55
2018-09-25T19:33:29.151Z,87.76
2018-09-25T19:36:38.729Z,88.98
2018-09-25T19:39:48.464Z,88.91
2018-09-25T19:42:58.121Z,88.74
2018-09-25T19:46:07.652Z,90.08
2018-09-25T19:49:17.277Z,90.57
2018-09-25T19:52:27.225Z,90.18
2018-09-25T19:55:36.802Z,90.17
2018-09-25T19:58:46.348Z,90.73
2018-09-25T20:01:57.135Z,91.16
2018-09-25T20:05:07.475Z,91.29
2018-09-25T20:08:17.031Z,91.49
2018-09-25T20:11:26.511Z,92.35
2018-09-25T20:14:36.160Z,92.24
2018-09-25T20:17:45.681Z,91.92
2018-09-25T20:20:55.116Z,91.98
2018-09-25T20:24:04.508Z,92.97
2018-09-25T20:27:14.413Z,93.07
2018-09-25T20:30:23.959Z,92.72
2018-09-25T20:33:34.298Z,93.11
2018-09-25T20:36:43.874Z,93.70
2018-09-25T20:39:53.435Z,93.49
2018-09-25T20:43:03.088Z,93.47
2018-09-25T20:46:12.711Z,93.87
2018-09-25T20:49:22.211Z,93.85
2018-09-25T20:52:31.909Z,93.83
2018-09-25T20:55:41.480Z,94.16
2018-09-25T20:58:51.071Z,94.25
2018-09-25T21:02:00.806Z,94.06
2018-09-25T21:05:10.360Z,93.18
2018-09-25T21:08:20.133Z,93.13
2018-09-25T21:11:29.991Z,93.72
2018-09-25T21:14:39.671Z,93.85
2018-09-25T21:17:49.152Z,94.01
2018-09-25T21:20:58.796Z,94.39
2018-09-25T21:24:08.357Z,94.23
2018-09-25T21:27:17.883Z,93.92
2018-09-25T21:30:27.349Z,94.00
2018-09-25T21:33:37.061Z,93.89
2018-09-25T21:36:46.781Z,94.07
2018-09-25T21:39:56.332Z,94.85
2018-09-25T21:43:05.871Z,95.34
2018-09-25T21:46:15.357Z,96.51
2018-09-25T21:49:24.902Z,96.51
2018-09-25T21:52:34.468Z,97.06
2018-09-25T21:55:44.024Z,97.49
2018-09-25T21:58:53.675Z,97.77
2018-09-25T22:02:03.178Z,98.00
2018-09-25T22:05:12.879Z,98.37
2018-09-25T22:08:30.596Z,98.91
2018-09-25T22:11:40.406Z,98.83
2018-09-25T22:14:50.045Z,98.31
2018-09-25T22:17:59.782Z,98.60
2018-09-25T22:21:09.333Z,98.50
2018-09-25T22:24:19.088Z,97.74
2018-09-25T22:27:28.822Z,97.63
2018-09-25T22:30:38.465Z,98.14
2018-09-25T22:33:48.107Z,98.01
2018-09-25T22:36:57.753Z,97.63
2018-09-25T22:40:07.358Z,97.17
2018-09-25T22:43:17.107Z,97.69
2018-09-25T22:46:26.790Z,97.94
2018-09-25T22:49:36.479Z,98.03
2018-09-25T22:52:45.989Z,98.72
2018-09-25T22:55:55.652Z,98.92
2018-09-25T22:59:05.248Z,98.37
2018-09-25T23:02:14.782Z,98.25
2018-09-25T23:05:24.342Z,98.47
2018-09-25T23:08:34.049Z,98.26
2018-09-25T23:11:43.663Z,98.06
2018-09-25T23:14:53.155Z,98.53
2018-09-25T23:18:02.791Z,98.91
2018-09-25T23:21:12.512Z,99.46
2018-09-25T23:24:22.180Z,99.39
2018-09-25T23:27:31.686Z,99.10
2018-09-25T23:30:41.149Z,99.29
2018-09-25T23:33:50.612Z,99.02
2018-09-25T23:37:00.195Z,97.23
2018-09-25T23:40:09.715Z,96.98
2018-09-25T23:45:23.250Z,97.53
2018-09-25T23:48:36.891Z,98.30
2018-09-25T23:52:02.004Z,98.73
2018-09-25T23:55:19.131Z,99.40
2018-09-25T23:59:00.960Z,99.45
